Time;durP1;ratioP1;P1;durP2;ratioP2;P2;SDS_P1;SDS_P2;PMS_P1;PMS_P2;Temp;Humidity;BMP_temperature;BMP_pressure;BME280_temperature;BME280_humidity;BME280_pressure;Samples;Min_cycle;Max_cycle;Signal;HPM_P1;HPM_P2
2022/01/19 00:01:07;;;;;;;;;;;4.30;99.90;;;;;;5042498;28;20007;-82
2022/01/19 00:03:32;;;;;;;;;;;4.30;99.90;;;;;;5027849;28;20297;-82
2022/01/19 00:05:58;;;;;;;;;;;4.30;99.90;;;;;;5028173;28;19921;-82
2022/01/19 00:08:26;;;;;;;;;;;4.30;99.90;;;;;;5028772;28;19925;-82
2022/01/19 00:10:52;;;;;;;;;;;4.30;99.90;;;;;;5028617;28;19925;-82
2022/01/19 00:13:18;;;;;;;;;;;4.30;99.90;;;;;;5028547;28;20012;-82
2022/01/19 00:15:44;;;;;;;;;;;4.80;99.90;;;;;;5044970;28;19925;-82
2022/01/19 00:18:10;;;;;;;;;;;4.20;99.90;;;;;;5027986;28;20328;-82
2022/01/19 00:20:35;;;;;;;;;;;4.50;99.90;;;;;;5027168;28;19929;-82
2022/01/19 00:23:02;;;;;;;;;;;4.20;99.90;;;;;;5061053;28;19925;-82
2022/01/19 00:25:28;;;;;;;;;;;4.90;99.90;;;;;;5052489;28;19947;-82
2022/01/19 00:27:53;;;;;;;;;;;4.20;99.90;;;;;;5059311;28;19964;-82
2022/01/19 00:30:19;;;;;;;;;;;4.20;99.90;;;;;;5061410;28;19986;-82
2022/01/19 00:32:44;;;;;;;;;;;4.20;99.90;;;;;;5060233;28;19925;-82
2022/01/19 00:35:11;;;;;;;;;;;4.10;99.90;;;;;;5042897;28;19931;-82
2022/01/19 00:37:37;;;;;;;;;;;4.10;99.90;;;;;;5044138;28;20024;-82
2022/01/19 00:40:03;;;;;;;;;;;4.10;99.90;;;;;;5061474;28;19978;-82
2022/01/19 00:42:29;;;;;;;;;;;4.10;99.90;;;;;;5042973;28;19964;-82
2022/01/19 00:44:54;;;;;;;;;;;4.40;99.90;;;;;;5060857;28;19924;-82
2022/01/19 00:47:20;;;;;;;;;;;4.10;99.90;;;;;;5026308;28;19931;-82
2022/01/19 00:49:46;;;;;;;;;;;4.10;99.90;;;;;;5027026;28;19925;-82
2022/01/19 00:52:12;;;;;;;;;;;4.10;99.90;;;;;;5043483;28;19947;-82
2022/01/19 00:54:38;;;;;;;;;;;4.70;99.90;;;;;;5042162;28;19925;-82
2022/01/19 00:57:04;;;;;;;;;;;4.40;99.90;;;;;;5026315;28;19924;-82
2022/01/19 00:59:29;;;;;;;;;;;4.10;99.90;;;;;;5025366;28;19925;-82
2022/01/19 01:01:55;;;;;;;;;;;4.40;99.90;;;;;;5025647;28;20342;-82
2022/01/19 01:04:20;;;;;;;;;;;4.10;99.90;;;;;;5044897;28;19990;-82
2022/01/19 01:06:46;;;;;;;;;;;4.80;99.90;;;;;;5027605;28;20363;-82
2022/01/19 01:09:11;;;;;;;;;;;4.20;99.90;;;;;;5043367;28;20367;-82
2022/01/19 01:11:46;;;;;;;;;;;4.10;99.90;;;;;;5062239;28;19964;-82
2022/01/19 01:16:40;;;;;;;;;;;4.20;99.90;;;;;;5066273;28;19928;-82
2022/01/19 01:19:08;;;;;;;;;;;4.20;99.90;;;;;;5045971;28;19935;-82
2022/01/19 01:21:34;;;;;;;;;;;4.20;99.90;;;;;;5029697;28;19925;-82
2022/01/19 01:24:00;;;;;;;;;;;4.20;99.90;;;;;;5029352;28;19925;-82
2022/01/19 01:26:25;;;;;;;;;;;4.20;99.90;;;;;;5062949;28;20394;-82
2022/01/19 01:28:51;;;;;;;;;;;4.20;99.90;;;;;;5063022;28;19964;-82
2022/01/19 01:31:16;;;;;;;;;;;4.20;99.90;;;;;;5063391;28;19925;-82
2022/01/19 01:33:42;;;;;;;;;;;4.50;99.90;;;;;;5063992;28;19924;-82
2022/01/19 01:36:08;;;;;;;;;;;4.30;99.90;;;;;;5064054;28;19971;-82
2022/01/19 01:38:34;;;;;;;;;;;4.70;99.90;;;;;;5064636;28;19921;-82
2022/01/19 01:40:59;;;;;;;;;;;4.80;99.90;;;;;;5063555;28;20020;-82
2022/01/19 01:43:25;;;;;;;;;;;4.90;99.90;;;;;;5064474;28;19988;-82
2022/01/19 01:45:56;;;;;;;;;;;4.80;99.90;;;;;;5064545;28;19921;-82
2022/01/19 01:48:24;;;;;;;;;;;4.30;99.90;;;;;;5062968;28;20371;-82
2022/01/19 01:53:35;;;;;;;;;;;4.30;99.90;;;;;;5063049;28;19925;-82
2022/01/19 01:56:09;;;;;;;;;;;4.90;99.90;;;;;;5046190;28;19924;-82
2022/01/19 01:58:36;;;;;;;;;;;4.20;99.90;;;;;;5078747;28;19932;-82
2022/01/19 02:01:02;;;;;;;;;;;4.50;99.90;;;;;;5063041;28;19932;-82
2022/01/19 02:03:28;;;;;;;;;;;4.80;99.90;;;;;;5062721;28;19925;-82
2022/01/19 02:06:16;;;;;;;;;;;5.00;99.90;;;;;;5046226;28;19979;-82
2022/01/19 02:08:53;;;;;;;;;;;4.20;99.90;;;;;;5063250;28;19925;-82
2022/01/19 02:22:52;;;;;;;;;;;4.10;99.90;;;;;;5007147;28;19925;-81
2022/01/19 02:25:17;;;;;;;;;;;4.00;99.90;;;;;;5004739;28;19956;-82
2022/01/19 02:41:40;;;;;;;;;;;3.80;99.90;;;;;;5020765;28;20055;-82
2022/01/19 02:44:09;;;;;;;;;;;3.60;99.90;;;;;;4972938;28;19930;-82
2022/01/19 02:49:15;;;;;;;;;;;3.60;99.90;;;;;;4981920;28;19949;-82
2022/01/19 02:51:45;;;;;;;;;;;3.60;99.90;;;;;;5007403;28;19964;-82
2022/01/19 02:54:12;;;;;;;;;;;3.50;99.90;;;;;;5042657;28;19924;-82
2022/01/19 02:56:39;;;;;;;;;;;3.90;99.90;;;;;;5040858;28;20368;-82
2022/01/19 02:59:16;;;;;;;;;;;3.40;99.90;;;;;;5024925;28;19921;-82
2022/01/19 03:09:41;;;;;;;;;;;3.30;99.90;;;;;;5039146;28;20434;-82
2022/01/19 03:12:07;;;;;;;;;;;3.20;99.90;;;;;;5023832;28;19925;-82
2022/01/19 03:14:33;;;;;;;;;;;3.20;99.90;;;;;;5040945;28;19984;-82
2022/01/19 03:16:58;;;;;;;;;;;3.20;99.90;;;;;;5023214;28;20367;-82
2022/01/19 03:19:26;;;;;;;;;;;3.10;99.90;;;;;;5038653;28;19925;-82
2022/01/19 03:21:52;;;;;;;;;;;3.20;99.90;;;;;;5040431;28;20384;-82
2022/01/19 03:24:18;;;;;;;;;;;3.70;99.90;;;;;;5040032;28;19932;-82
2022/01/19 03:26:44;;;;;;;;;;;3.00;99.90;;;;;;5037995;28;19947;-82
2022/01/19 03:29:09;;;;;;;;;;;3.00;99.90;;;;;;5022066;28;19980;-82
2022/01/19 03:31:35;;;;;;;;;;;3.70;99.90;;;;;;5023068;28;19925;-82
2022/01/19 03:34:01;;;;;;;;;;;3.30;99.90;;;;;;5023486;28;19931;-82
2022/01/19 03:36:27;;;;;;;;;;;2.90;99.90;;;;;;5063227;23;20125;-82
2022/01/19 03:38:53;;;;;;;;;;;3.30;99.90;;;;;;5065855;28;19931;-82
2022/01/19 03:41:18;;;;;;;;;;;2.80;99.90;;;;;;5081037;28;19929;-82
2022/01/19 03:43:44;;;;;;;;;;;3.50;99.90;;;;;;5063934;28;20011;-82
2022/01/19 03:46:14;;;;;;;;;;;2.80;99.90;;;;;;5064528;28;19924;-82
2022/01/19 03:48:58;;;;;;;;;;;3.10;99.90;;;;;;5064140;28;19970;-82
2022/01/19 03:51:24;;;;;;;;;;;2.80;99.90;;;;;;5062403;28;19925;-82
2022/01/19 03:53:49;;;;;;;;;;;2.80;99.90;;;;;;5079970;28;20023;-82
2022/01/19 03:56:16;;;;;;;;;;;2.90;99.90;;;;;;5079243;28;19925;-82
2022/01/19 03:58:41;;;;;;;;;;;2.80;99.90;;;;;;5063336;28;19924;-82
2022/01/19 04:01:08;;;;;;;;;;;3.50;99.90;;;;;;5062581;28;20083;-82
2022/01/19 04:03:57;;;;;;;;;;;2.80;99.90;;;;;;5062568;28;19924;-82
2022/01/19 04:06:40;;;;;;;;;;;2.80;99.90;;;;;;5062678;28;19920;-82
2022/01/19 04:09:05;;;;;;;;;;;2.70;99.90;;;;;;5079471;28;19934;-82
2022/01/19 04:11:31;;;;;;;;;;;2.80;99.90;;;;;;5062215;28;19924;-82
2022/01/19 04:16:22;;;;;;;;;;;2.80;99.90;;;;;;5080647;28;19925;-82
2022/01/19 04:18:48;;;;;;;;;;;2.80;99.90;;;;;;5078405;28;20386;-82
2022/01/19 04:21:14;;;;;;;;;;;3.10;99.90;;;;;;5063726;28;19924;-82
2022/01/19 04:23:40;;;;;;;;;;;2.80;99.90;;;;;;5062224;28;19980;-82
2022/01/19 04:26:05;;;;;;;;;;;3.40;99.90;;;;;;5062370;28;20303;-82
2022/01/19 04:28:31;;;;;;;;;;;3.10;99.90;;;;;;5062833;28;19986;-82
2022/01/19 04:30:57;;;;;;;;;;;3.40;99.90;;;;;;5062395;28;19951;-82
2022/01/19 04:33:26;;;;;;;;;;;2.80;99.90;;;;;;5079736;28;20280;-82
2022/01/19 04:35:54;;;;;;;;;;;3.30;99.90;;;;;;5080082;28;19967;-82
2022/01/19 05:07:18;;;;;;;;;;;3.60;99.90;;;;;;5085279;28;20011;-82
2022/01/19 05:15:12;;;;;;;;;;;2.80;99.90;;;;;;5083750;28;19971;-82
2022/01/19 05:17:38;;;;;;;;;;;2.90;99.90;;;;;;5083488;28;19925;-82
2022/01/19 05:20:04;;;;;;;;;;;2.90;99.90;;;;;;5066680;28;19924;-82
2022/01/19 05:22:30;;;;;;;;;;;3.00;99.90;;;;;;5087638;28;19930;-82
2022/01/19 05:24:56;;;;;;;;;;;3.00;99.90;;;;;;5083834;28;20347;-82
2022/01/19 05:27:22;;;;;;;;;;;3.00;99.90;;;;;;5066980;28;19925;-82
2022/01/19 05:29:48;;;;;;;;;;;2.90;99.90;;;;;;5083382;28;20290;-82
2022/01/19 05:32:13;;;;;;;;;;;3.70;99.90;;;;;;5083391;28;19924;-81
2022/01/19 05:34:39;;;;;;;;;;;2.90;99.90;;;;;;5065815;28;20063;-82
2022/01/19 05:37:04;;;;;;;;;;;2.90;99.90;;;;;;5065629;28;20389;-82
2022/01/19 05:39:30;;;;;;;;;;;2.90;99.90;;;;;;5082799;28;19931;-82
2022/01/19 05:41:56;;;;;;;;;;;2.80;99.90;;;;;;5083267;28;19925;-82
2022/01/19 05:44:21;;;;;;;;;;;3.30;99.90;;;;;;5068103;28;19925;-82
2022/01/19 05:46:47;;;;;;;;;;;3.20;99.90;;;;;;5085237;28;19951;-82
2022/01/19 05:49:12;;;;;;;;;;;2.80;99.90;;;;;;5082495;28;20069;-82
2022/01/19 05:51:38;;;;;;;;;;;2.80;99.90;;;;;;5065184;28;19924;-82
2022/01/19 05:54:03;;;;;;;;;;;3.20;99.90;;;;;;5090577;22;20037;-82
2022/01/19 05:56:29;;;;;;;;;;;3.40;99.90;;;;;;5099635;28;19928;-82
2022/01/19 05:58:55;;;;;;;;;;;2.70;99.90;;;;;;5082548;28;19924;-82
2022/01/19 06:01:20;;;;;;;;;;;2.80;99.90;;;;;;5082172;28;19948;-82
2022/01/19 06:03:46;;;;;;;;;;;2.80;99.90;;;;;;5082206;28;19924;-82
2022/01/19 06:06:12;;;;;;;;;;;2.80;99.90;;;;;;5083107;28;19924;-82
2022/01/19 06:08:44;;;;;;;;;;;2.90;99.90;;;;;;5082496;28;19931;-82
2022/01/19 06:11:11;;;;;;;;;;;2.80;99.90;;;;;;5082769;28;19924;-82
2022/01/19 06:13:37;;;;;;;;;;;2.90;99.90;;;;;;5096021;28;19947;-83
2022/01/19 06:16:02;;;;;;;;;;;2.90;99.90;;;;;;5077369;28;19987;-83
2022/01/19 06:18:28;;;;;;;;;;;2.90;99.90;;;;;;5078962;28;19932;-83
2022/01/19 06:20:54;;;;;;;;;;;2.80;99.90;;;;;;5076661;28;19925;-83
2022/01/19 06:23:19;;;;;;;;;;;2.80;99.90;;;;;;5076326;28;20417;-83
2022/01/19 06:25:45;;;;;;;;;;;2.90;99.90;;;;;;5077096;28;19963;-83
2022/01/19 06:28:10;;;;;;;;;;;2.90;99.90;;;;;;5078844;28;20349;-83
2022/01/19 06:30:36;;;;;;;;;;;2.90;99.90;;;;;;5081086;28;19931;-83
2022/01/19 06:33:02;;;;;;;;;;;2.90;99.90;;;;;;5080620;28;19932;-83
2022/01/19 06:35:28;;;;;;;;;;;2.90;99.90;;;;;;5081061;28;19924;-83
2022/01/19 06:37:54;;;;;;;;;;;2.90;99.90;;;;;;5082461;28;19947;-83
2022/01/19 06:40:20;;;;;;;;;;;3.00;99.90;;;;;;5079913;28;19932;-83
2022/01/19 06:42:46;;;;;;;;;;;3.00;99.90;;;;;;5079517;28;19924;-83
2022/01/19 06:45:12;;;;;;;;;;;3.00;99.90;;;;;;5079745;28;19931;-83
2022/01/19 06:47:38;;;;;;;;;;;3.00;99.90;;;;;;5095088;28;19928;-83
2022/01/19 06:50:06;;;;;;;;;;;3.00;99.90;;;;;;5079443;28;19925;-83
2022/01/19 06:52:31;;;;;;;;;;;3.00;99.90;;;;;;5078930;28;20015;-83
2022/01/19 06:54:57;;;;;;;;;;;3.00;99.90;;;;;;5077397;28;20350;-83
2022/01/19 06:57:23;;;;;;;;;;;3.30;99.90;;;;;;5077490;28;19924;-83
2022/01/19 06:59:51;;;;;;;;;;;3.10;99.90;;;;;;5078215;28;20267;-83
2022/01/19 07:02:19;;;;;;;;;;;3.00;99.90;;;;;;5077728;28;20402;-83
2022/01/19 07:04:49;;;;;;;;;;;3.10;99.90;;;;;;5077910;28;19920;-83
2022/01/19 07:07:15;;;;;;;;;;;3.00;99.90;;;;;;5077306;28;20374;-83
2022/01/19 07:09:41;;;;;;;;;;;3.10;99.90;;;;;;5079221;28;19980;-83
2022/01/19 07:12:06;;;;;;;;;;;3.10;99.90;;;;;;5077765;28;19924;-83
2022/01/19 07:14:32;;;;;;;;;;;3.10;99.90;;;;;;5077916;28;19975;-83
2022/01/19 07:16:57;;;;;;;;;;;3.20;99.90;;;;;;5077599;28;19928;-83
2022/01/19 07:19:23;;;;;;;;;;;3.10;99.90;;;;;;5076347;28;20057;-83
2022/01/19 07:21:50;;;;;;;;;;;3.20;99.90;;;;;;5078023;28;19932;-83
2022/01/19 07:24:15;;;;;;;;;;;3.20;99.90;;;;;;5077676;28;19948;-83
2022/01/19 07:26:41;;;;;;;;;;;3.20;99.90;;;;;;5079213;28;20375;-83
2022/01/19 07:29:06;;;;;;;;;;;3.20;99.90;;;;;;5076764;28;19931;-83
2022/01/19 07:31:32;;;;;;;;;;;3.20;99.90;;;;;;5093628;28;19930;-83
2022/01/19 07:33:57;;;;;;;;;;;3.20;99.90;;;;;;5076361;28;19928;-83
2022/01/19 07:36:23;;;;;;;;;;;3.20;99.90;;;;;;5078533;28;19932;-83
2022/01/19 07:38:48;;;;;;;;;;;3.20;99.90;;;;;;5077818;28;19932;-83
2022/01/19 07:41:14;;;;;;;;;;;3.20;99.90;;;;;;5076429;28;19968;-83
2022/01/19 07:43:40;;;;;;;;;;;3.20;99.90;;;;;;5075873;28;20290;-83
2022/01/19 07:46:05;;;;;;;;;;;3.20;99.90;;;;;;5076059;28;20345;-83
2022/01/19 07:48:31;;;;;;;;;;;3.20;99.90;;;;;;5076100;28;19932;-83
2022/01/19 07:50:56;;;;;;;;;;;3.20;99.90;;;;;;5075814;28;19932;-83
2022/01/19 07:53:22;;;;;;;;;;;3.30;99.90;;;;;;5076598;28;20025;-83
2022/01/19 07:55:49;;;;;;;;;;;3.30;99.90;;;;;;5077200;28;19934;-83
2022/01/19 07:58:14;;;;;;;;;;;3.30;99.90;;;;;;5075964;28;19994;-83
2022/01/19 08:00:42;;;;;;;;;;;3.30;99.90;;;;;;5076613;28;19925;-83
2022/01/19 08:03:11;;;;;;;;;;;3.30;99.90;;;;;;5076235;28;19925;-83
2022/01/19 08:05:37;;;;;;;;;;;3.40;99.90;;;;;;5077314;28;19925;-83
2022/01/19 08:08:02;;;;;;;;;;;3.40;99.90;;;;;;5075756;28;19931;-83
2022/01/19 08:10:29;;;;;;;;;;;3.40;99.90;;;;;;5092462;28;19979;-83
2022/01/19 08:12:55;;;;;;;;;;;3.40;99.90;;;;;;5076659;28;19931;-83
2022/01/19 08:15:21;;;;;;;;;;;3.40;99.90;;;;;;5091597;28;19956;-83
2022/01/19 08:17:46;;;;;;;;;;;3.40;99.90;;;;;;5091997;28;19924;-83
2022/01/19 08:20:12;;;;;;;;;;;3.40;99.90;;;;;;5079297;28;19947;-83
2022/01/19 08:22:38;;;;;;;;;;;3.40;99.90;;;;;;5075238;28;19983;-83
2022/01/19 08:25:04;;;;;;;;;;;3.40;99.90;;;;;;5075170;28;19924;-83
2022/01/19 08:27:29;;;;;;;;;;;3.40;99.90;;;;;;5076125;28;19932;-83
2022/01/19 08:29:55;;;;;;;;;;;3.40;99.90;;;;;;5076510;28;19925;-83
2022/01/19 08:32:20;;;;;;;;;;;3.40;99.90;;;;;;5075414;28;19932;-83
2022/01/19 08:34:46;;;;;;;;;;;3.90;99.90;;;;;;5074932;28;19931;-83
2022/01/19 08:37:15;;;;;;;;;;;3.50;99.90;;;;;;5076414;28;19924;-83
2022/01/19 08:39:41;;;;;;;;;;;3.50;99.90;;;;;;5091685;28;20384;-83
2022/01/19 08:42:07;;;;;;;;;;;3.50;99.90;;;;;;5074702;28;20028;-83
2022/01/19 08:44:32;;;;;;;;;;;3.50;99.90;;;;;;5062165;28;19928;-83
2022/01/19 08:46:58;;;;;;;;;;;3.60;99.90;;;;;;5074234;28;19929;-83
2022/01/19 08:49:23;;;;;;;;;;;3.60;99.90;;;;;;5074224;28;19931;-83
2022/01/19 08:51:49;;;;;;;;;;;3.60;99.90;;;;;;5075491;28;19924;-83
2022/01/19 08:54:14;;;;;;;;;;;3.60;99.90;;;;;;5075119;28;19924;-83
2022/01/19 08:56:40;;;;;;;;;;;3.60;99.90;;;;;;5075735;28;19924;-83
2022/01/19 08:59:06;;;;;;;;;;;3.60;99.90;;;;;;5074931;28;19925;-83
2022/01/19 09:01:31;;;;;;;;;;;3.60;99.90;;;;;;5076185;28;20282;-83
2022/01/19 09:03:57;;;;;;;;;;;3.60;99.90;;;;;;5076220;28;19950;-83
2022/01/19 09:06:23;;;;;;;;;;;3.70;99.90;;;;;;5076032;28;20030;-83
2022/01/19 09:08:48;;;;;;;;;;;3.70;99.90;;;;;;5076463;28;19928;-83
2022/01/19 09:11:14;;;;;;;;;;;3.70;99.90;;;;;;5074667;28;19924;-83
2022/01/19 09:13:41;;;;;;;;;;;3.70;99.90;;;;;;5075717;28;19925;-83
2022/01/19 09:16:06;;;;;;;;;;;3.70;99.90;;;;;;5074584;28;19925;-83
2022/01/19 09:18:32;;;;;;;;;;;3.70;99.90;;;;;;5076759;28;19931;-83
2022/01/19 09:20:57;;;;;;;;;;;3.70;99.90;;;;;;5074238;28;19932;-83
2022/01/19 09:23:23;;;;;;;;;;;3.80;99.90;;;;;;5057740;28;20289;-83
2022/01/19 09:25:49;;;;;;;;;;;3.80;99.90;;;;;;5075394;28;20011;-83
2022/01/19 09:28:15;;;;;;;;;;;3.80;99.90;;;;;;5073903;28;19924;-83
2022/01/19 09:30:41;;;;;;;;;;;3.80;99.90;;;;;;5073659;28;20023;-83
2022/01/19 09:33:10;;;;;;;;;;;3.80;99.90;;;;;;5075449;28;19921;-83
2022/01/19 09:35:52;;;;;;;;;;;3.80;99.90;;;;;;5079134;28;19986;-83
2022/01/19 09:38:19;;;;;;;;;;;3.80;99.90;;;;;;5080811;28;19935;-83
2022/01/19 09:40:45;;;;;;;;;;;3.80;99.90;;;;;;5078797;28;19924;-83
2022/01/19 09:43:11;;;;;;;;;;;3.80;99.90;;;;;;5079857;28;19921;-83
2022/01/19 09:45:37;;;;;;;;;;;3.80;99.90;;;;;;5079054;28;20259;-83
2022/01/19 09:48:03;;;;;;;;;;;3.90;99.90;;;;;;5094471;28;19947;-83
2022/01/19 09:50:28;;;;;;;;;;;4.20;99.90;;;;;;5077976;28;19978;-82
2022/01/19 09:52:54;;;;;;;;;;;3.90;99.90;;;;;;5092950;28;19925;-83
2022/01/19 09:55:19;;;;;;;;;;;3.90;99.90;;;;;;5081359;28;19924;-83
2022/01/19 09:57:45;;;;;;;;;;;3.90;99.90;;;;;;5077224;28;19925;-84
2022/01/19 10:00:11;;;;;;;;;;;4.20;99.90;;;;;;5081129;28;19931;-83
2022/01/19 10:02:36;;;;;;;;;;;3.90;99.90;;;;;;5076082;28;19924;-83
2022/01/19 10:05:08;;;;;;;;;;;4.00;99.90;;;;;;5077334;28;20015;-84
2022/01/19 10:07:34;;;;;;;;;;;4.00;99.90;;;;;;5067190;28;19988;-83
2022/01/19 10:10:01;;;;;;;;;;;4.00;99.90;;;;;;5077368;28;20033;-86
2022/01/19 10:18:14;;;;;;;;;;;4.00;99.90;;;;;;5082343;28;19924;-82
2022/01/19 10:20:40;;;;;;;;;;;4.00;99.90;;;;;;5081671;28;19924;-82
2022/01/19 10:23:26;;;;;;;;;;;4.10;99.90;;;;;;5075899;28;19927;-85
2022/01/19 10:25:51;;;;;;;;;;;4.00;99.90;;;;;;5076328;28;19924;-82
2022/01/19 10:28:17;;;;;;;;;;;4.00;99.90;;;;;;5081682;28;19932;-82
2022/01/19 10:30:42;;;;;;;;;;;4.10;99.90;;;;;;5079988;28;19971;-83
2022/01/19 10:33:08;;;;;;;;;;;4.10;99.90;;;;;;5080359;28;19968;-83
2022/01/19 10:35:37;;;;;;;;;;;4.10;99.90;;;;;;5078764;28;19935;-83
2022/01/19 10:38:09;;;;;;;;;;;4.10;99.90;;;;;;5078572;28;19948;-83
2022/01/19 10:40:36;;;;;;;;;;;4.20;99.90;;;;;;5080149;28;19927;-83
2022/01/19 10:43:21;;;;;;;;;;;4.20;99.90;;;;;;5080995;28;19928;-83
2022/01/19 10:45:46;;;;;;;;;;;4.20;99.90;;;;;;5078420;28;19920;-83
2022/01/19 10:48:28;;;;;;;;;;;4.30;99.90;;;;;;5096148;28;19982;-83
2022/01/19 10:51:04;;;;;;;;;;;4.60;99.90;;;;;;5078937;28;19924;-84
2022/01/19 10:53:30;;;;;;;;;;;4.40;99.90;;;;;;5080523;28;19925;-83
2022/01/19 10:55:56;;;;;;;;;;;4.40;99.90;;;;;;5078846;28;19931;-83
2022/01/19 10:58:22;;;;;;;;;;;4.40;99.90;;;;;;5080638;28;20386;-83
2022/01/19 11:00:49;;;;;;;;;;;4.40;99.90;;;;;;5082285;28;20031;-81
2022/01/19 11:03:20;;;;;;;;;;;4.80;99.90;;;;;;5103666;22;19985;-81
2022/01/19 11:05:45;;;;;;;;;;;4.40;99.90;;;;;;5088074;22;20375;-82
2022/01/19 11:08:12;;;;;;;;;;;4.40;99.90;;;;;;5086112;22;19925;-81
2022/01/19 11:10:38;;;;;;;;;;;4.90;99.90;;;;;;5086620;23;19929;-82
2022/01/19 11:13:06;;;;;;;;;;;4.50;99.90;;;;;;5081334;28;19934;-82
2022/01/19 11:15:37;;;;;;;;;;;4.60;99.90;;;;;;5085973;23;19925;-82
2022/01/19 11:18:03;;;;;;;;;;;4.70;99.90;;;;;;5062890;23;19988;-82
2022/01/19 11:20:28;;;;;;;;;;;4.70;99.90;;;;;;5067019;28;19978;-82
2022/01/19 11:23:03;;;;;;;;;;;5.20;99.90;;;;;;5105571;22;19936;-82
2022/01/19 11:25:58;;;;;;;;;;;4.80;99.90;;;;;;5065872;23;20265;-82
2022/01/19 11:28:34;;;;;;;;;;;4.90;99.90;;;;;;5019713;28;19925;-82
2022/01/19 11:31:09;;;;;;;;;;;5.00;99.90;;;;;;4988105;28;19931;-82
2022/01/19 11:33:41;;;;;;;;;;;5.10;99.90;;;;;;5019827;28;20413;-82
2022/01/19 11:36:17;;;;;;;;;;;5.20;99.90;;;;;;5037672;28;20392;-82
2022/01/19 11:38:44;;;;;;;;;;;5.30;99.90;;;;;;5037219;28;20268;-82
2022/01/19 11:41:10;;;;;;;;;;;5.40;99.90;;;;;;5036134;28;20037;-82
2022/01/19 11:43:46;;;;;;;;;;;5.50;99.90;;;;;;5020079;28;19949;-82
2022/01/19 11:46:29;;;;;;;;;;;5.60;99.90;;;;;;5003566;28;19929;-82
2022/01/19 11:48:54;;;;;;;;;;;5.60;99.90;;;;;;5018776;28;19929;-82
2022/01/19 11:51:20;;;;;;;;;;;5.60;99.90;;;;;;5035663;28;20300;-82
2022/01/19 11:53:59;;;;;;;;;;;5.50;99.90;;;;;;5003778;28;19925;-82
2022/01/19 11:56:26;;;;;;;;;;;5.50;99.90;;;;;;5003762;28;20647;-82
2022/01/19 11:59:03;;;;;;;;;;;5.50;99.90;;;;;;5030084;28;19929;-82
2022/01/19 12:01:29;;;;;;;;;;;5.40;99.90;;;;;;5014025;28;19926;-82
2022/01/19 12:04:11;;;;;;;;;;;5.40;99.90;;;;;;5048761;28;19970;-82
2022/01/19 12:06:37;;;;;;;;;;;5.40;99.90;;;;;;5082432;28;19971;-82
2022/01/19 12:09:04;;;;;;;;;;;5.30;99.90;;;;;;5081409;28;19925;-82
2022/01/19 12:11:31;;;;;;;;;;;5.30;99.90;;;;;;5074135;22;19925;-82
2022/01/19 12:17:05;;;;;;;;;;;5.30;99.90;;;;;;5062743;28;19975;-82
2022/01/19 12:19:40;;;;;;;;;;;5.80;99.90;;;;;;5028216;28;19992;-82
2022/01/19 12:22:12;;;;;;;;;;;5.20;99.90;;;;;;5061554;28;19929;-82
2022/01/19 12:24:44;;;;;;;;;;;5.20;99.90;;;;;;5044779;28;19929;-82
2022/01/19 12:27:13;;;;;;;;;;;5.20;99.90;;;;;;5044803;28;20012;-82
2022/01/19 12:29:57;;;;;;;;;;;5.30;99.90;;;;;;5044193;28;19925;-82
2022/01/19 12:32:26;;;;;;;;;;;5.30;99.90;;;;;;5028349;28;19928;-82
2022/01/19 12:35:07;;;;;;;;;;;5.30;99.90;;;;;;5044470;28;19921;-82
2022/01/19 12:37:32;;;;;;;;;;;5.30;99.90;;;;;;5061870;28;20383;-82
2022/01/19 12:39:59;;;;;;;;;;;5.40;99.90;;;;;;5044797;28;19992;-82
2022/01/19 12:42:39;;;;;;;;;;;5.90;99.90;;;;;;5027599;28;19925;-83
2022/01/19 12:45:15;;;;;;;;;;;5.90;99.90;;;;;;5061278;28;19920;-82
2022/01/19 12:47:40;;;;;;;;;;;5.40;99.90;;;;;;5026732;28;19971;-81
2022/01/19 12:50:09;;;;;;;;;;;5.50;99.90;;;;;;5043456;28;19924;-82
2022/01/19 12:52:40;;;;;;;;;;;5.50;99.90;;;;;;5044077;28;19925;-82
2022/01/19 12:55:26;;;;;;;;;;;6.20;99.90;;;;;;5043582;28;19989;-82
2022/01/19 12:57:54;;;;;;;;;;;5.60;99.90;;;;;;5025501;28;19925;-82
2022/01/19 13:00:21;;;;;;;;;;;6.20;99.90;;;;;;5043024;28;19935;-82
2022/01/19 13:02:47;;;;;;;;;;;5.90;99.90;;;;;;5061489;28;19932;-82
2022/01/19 13:05:18;;;;;;;;;;;5.50;99.90;;;;;;5042857;28;20318;-82
2022/01/19 13:07:45;;;;;;;;;;;5.50;99.90;;;;;;5026597;28;19924;-82
2022/01/19 13:15:38;;;;;;;;;;;5.40;99.90;;;;;;5064501;28;19924;-83
2022/01/19 13:18:03;;;;;;;;;;;5.50;99.90;;;;;;5064312;28;19929;-83
2022/01/19 13:20:29;;;;;;;;;;;5.40;99.90;;;;;;5064850;28;20015;-82
2022/01/19 13:22:55;;;;;;;;;;;5.40;99.90;;;;;;5065052;28;19925;-83
2022/01/19 13:25:29;;;;;;;;;;;5.40;99.90;;;;;;5046506;28;19924;-83
2022/01/19 13:27:56;;;;;;;;;;;5.30;99.90;;;;;;5046760;28;20302;-83
2022/01/19 13:30:23;;;;;;;;;;;5.60;99.90;;;;;;5064415;28;19924;-82
2022/01/19 13:32:48;;;;;;;;;;;5.40;99.90;;;;;;5065585;28;19929;-83
2022/01/19 13:35:14;;;;;;;;;;;5.30;99.90;;;;;;5029277;28;19931;-83
2022/01/19 13:37:42;;;;;;;;;;;5.60;99.90;;;;;;5064663;28;19971;-83
2022/01/19 13:40:10;;;;;;;;;;;5.30;99.90;;;;;;5064432;28;20274;-82
2022/01/19 13:42:47;;;;;;;;;;;5.20;99.90;;;;;;5063710;28;20352;-83
2022/01/19 13:45:24;;;;;;;;;;;5.20;99.90;;;;;;5043095;28;20479;-83
2022/01/19 13:48:04;;;;;;;;;;;5.20;99.90;;;;;;5027173;28;19932;-83
2022/01/19 13:50:30;;;;;;;;;;;5.20;99.90;;;;;;5027129;28;19925;-83
2022/01/19 13:52:56;;;;;;;;;;;5.20;99.90;;;;;;5045207;28;20372;-82
2022/01/19 13:55:22;;;;;;;;;;;5.10;99.90;;;;;;5045556;28;19980;-82
2022/01/19 13:57:48;;;;;;;;;;;5.10;99.90;;;;;;5046175;28;19929;-82
2022/01/19 14:00:16;;;;;;;;;;;5.10;99.90;;;;;;5026715;28;19975;-82
2022/01/19 14:03:01;;;;;;;;;;;5.10;99.90;;;;;;5026382;28;19925;-82
2022/01/19 14:05:36;;;;;;;;;;;5.10;99.90;;;;;;5026972;28;19927;-82
2022/01/19 14:08:01;;;;;;;;;;;5.10;99.90;;;;;;5043258;28;19940;-82
2022/01/19 14:10:37;;;;;;;;;;;5.00;99.90;;;;;;5026288;28;20311;-82
2022/01/19 14:13:19;;;;;;;;;;;5.00;99.90;;;;;;5027588;28;19929;-82
2022/01/19 14:15:45;;;;;;;;;;;5.00;99.90;;;;;;5042220;28;20020;-82
2022/01/19 14:18:11;;;;;;;;;;;5.50;99.90;;;;;;5026867;28;19935;-82
2022/01/19 14:20:36;;;;;;;;;;;5.00;99.90;;;;;;5041488;28;19921;-82
2022/01/19 14:23:13;;;;;;;;;;;5.10;99.90;;;;;;5008989;28;19970;-82
2022/01/19 14:25:39;;;;;;;;;;;5.10;99.90;;;;;;5025925;28;19925;-82
2022/01/19 14:28:15;;;;;;;;;;;5.10;99.90;;;;;;5025530;28;20006;-82
2022/01/19 14:30:42;;;;;;;;;;;5.10;99.90;;;;;;5025505;28;19936;-82
2022/01/19 14:33:09;;;;;;;;;;;5.10;99.90;;;;;;5025074;28;19925;-82
2022/01/19 14:35:38;;;;;;;;;;;5.80;99.90;;;;;;5024341;28;19925;-82
2022/01/19 14:38:12;;;;;;;;;;;5.20;99.90;;;;;;5025127;28;19933;-82
2022/01/19 14:40:50;;;;;;;;;;;5.20;99.90;;;;;;5039363;28;19925;-82
2022/01/19 14:43:17;;;;;;;;;;;5.20;99.90;;;;;;5028581;28;19940;-82
2022/01/19 14:45:49;;;;;;;;;;;5.20;99.90;;;;;;5027583;28;20395;-82
2022/01/19 14:48:16;;;;;;;;;;;5.20;99.90;;;;;;5062386;28;20385;-82
2022/01/19 14:50:42;;;;;;;;;;;5.70;99.90;;;;;;5050218;22;19947;-82
2022/01/19 14:53:08;;;;;;;;;;;5.30;99.90;;;;;;5044054;28;19955;-82
2022/01/19 14:55:37;;;;;;;;;;;5.30;99.90;;;;;;5077916;28;19932;-82
2022/01/19 14:58:04;;;;;;;;;;;5.90;99.90;;;;;;5027654;28;20023;-82
2022/01/19 15:00:30;;;;;;;;;;;6.10;99.90;;;;;;5044011;28;19968;-82
2022/01/19 15:03:01;;;;;;;;;;;5.80;99.90;;;;;;5061361;28;19925;-82
2022/01/19 15:05:28;;;;;;;;;;;5.40;99.90;;;;;;5043956;28;20015;-82
2022/01/19 15:07:55;;;;;;;;;;;5.40;99.90;;;;;;5043799;28;20291;-82
2022/01/19 15:10:21;;;;;;;;;;;6.00;99.90;;;;;;5061559;28;19924;-82
2022/01/19 15:12:51;;;;;;;;;;;5.40;99.90;;;;;;5060256;28;19925;-82
2022/01/19 15:15:17;;;;;;;;;;;5.40;99.90;;;;;;5061864;28;19925;-82
2022/01/19 15:17:42;;;;;;;;;;;5.50;99.90;;;;;;5060454;28;19964;-82
2022/01/19 15:20:08;;;;;;;;;;;6.00;99.90;;;;;;5060721;28;19925;-82
2022/01/19 15:22:34;;;;;;;;;;;5.50;99.90;;;;;;5061843;28;19979;-82
2022/01/19 15:25:00;;;;;;;;;;;6.00;99.90;;;;;;5043757;28;19925;-82
2022/01/19 15:27:26;;;;;;;;;;;5.60;99.90;;;;;;5060527;28;19924;-82
2022/01/19 15:29:52;;;;;;;;;;;5.60;99.90;;;;;;5043807;28;20015;-82
2022/01/19 15:32:18;;;;;;;;;;;5.70;99.90;;;;;;5061251;28;19924;-82
2022/01/19 15:34:43;;;;;;;;;;;5.90;99.90;;;;;;5060138;28;19929;-82
2022/01/19 15:37:09;;;;;;;;;;;6.50;99.90;;;;;;5060106;28;20030;-82
2022/01/19 15:39:35;;;;;;;;;;;6.10;99.90;;;;;;5061634;28;20007;-82
2022/01/19 15:42:01;;;;;;;;;;;5.90;99.90;;;;;;5065255;28;19931;-82
2022/01/19 15:44:27;;;;;;;;;;;5.90;99.90;;;;;;5052331;28;19946;-82
2022/01/19 15:46:53;;;;;;;;;;;6.40;99.90;;;;;;5047723;28;20322;-82
2022/01/19 15:49:19;;;;;;;;;;;6.00;99.90;;;;;;5043929;28;19925;-82
2022/01/19 15:51:44;;;;;;;;;;;6.10;99.90;;;;;;5044292;28;19931;-82
2022/01/19 15:54:10;;;;;;;;;;;6.10;99.90;;;;;;5044193;28;19947;-82
2022/01/19 15:56:40;;;;;;;;;;;6.10;99.90;;;;;;5043683;28;19963;-82
2022/01/19 15:59:05;;;;;;;;;;;6.10;99.90;;;;;;5061897;28;19976;-82
2022/01/19 16:01:31;;;;;;;;;;;6.10;99.90;;;;;;5026806;28;19925;-82
2022/01/19 16:03:56;;;;;;;;;;;6.20;99.90;;;;;;5043764;28;19974;-82
2022/01/19 16:06:22;;;;;;;;;;;6.20;99.90;;;;;;5043450;28;19975;-82